Time;durP1;ratioP1;P1;durP2;ratioP2;P2;SDS_P1;SDS_P2;PMS_P1;PMS_P2;Temp;Humidity;BMP_temperature;BMP_pressure;BME280_temperature;BME280_humidity;BME280_pressure;Samples;Min_cycle;Max_cycle;Signal;HPM_P1;HPM_P2
2021/03/16 00:00:13;;;;;;;23.15;5.40;;;13.10;57.90;;;;;;1043078;28;20446;-76
2021/03/16 00:00:45;;;;;;;24.90;5.47;;;13.10;57.70;;;;;;1043060;28;20083;-77
2021/03/16 00:01:16;;;;;;;21.98;5.40;;;13.10;57.50;;;;;;1043482;28;20128;-76
2021/03/16 00:01:48;;;;;;;20.77;5.43;;;13.10;57.60;;;;;;1040873;28;20598;-76
2021/03/16 00:02:19;;;;;;;20.55;5.47;;;13.20;57.40;;;;;;1043266;28;20463;-76
2021/03/16 00:02:51;;;;;;;21.50;5.15;;;13.20;57.60;;;;;;1043087;28;20013;-77
2021/03/16 00:03:22;;;;;;;18.88;5.22;;;13.20;57.60;;;;;;1043099;28;20020;-76
2021/03/16 00:03:54;;;;;;;24.42;5.65;;;13.20;56.90;;;;;;1042950;28;20401;-76
2021/03/16 00:04:25;;;;;;;31.77;6.05;;;13.10;56.40;;;;;;1043883;28;20013;-76
2021/03/16 00:04:56;;;;;;;21.65;5.82;;;13.10;56.40;;;;;;1042851;28;20112;-76
2021/03/16 00:05:28;;;;;;;23.25;5.68;;;13.20;56.10;;;;;;1038958;28;20067;-76
2021/03/16 00:06:00;;;;;;;22.17;5.32;;;13.30;55.80;;;;;;1039475;28;20018;-76
2021/03/16 00:06:32;;;;;;;22.58;5.30;;;13.30;56.30;;;;;;1044144;28;20400;-76
2021/03/16 00:07:08;;;;;;;22.10;5.80;;;13.30;56.60;;;;;;1047338;28;20035;-76
2021/03/16 00:07:39;;;;;;;24.20;6.10;;;13.30;56.80;;;;;;1050830;28;20402;-76
2021/03/16 00:08:11;;;;;;;19.67;5.50;;;13.30;57.00;;;;;;1051784;28;20096;-76
2021/03/16 00:08:43;;;;;;;26.85;6.30;;;13.30;56.80;;;;;;1051455;28;20042;-76
2021/03/16 00:09:15;;;;;;;19.90;5.47;;;13.30;55.60;;;;;;1050988;28;20096;-76
2021/03/16 00:09:46;;;;;;;18.38;4.90;;;13.30;56.00;;;;;;1047367;28;20395;-76
2021/03/16 00:10:18;;;;;;;22.92;5.68;;;13.30;56.80;;;;;;1043216;28;20059;-76
2021/03/16 00:10:50;;;;;;;22.98;6.18;;;13.40;56.70;;;;;;1042832;28;20032;-76
2021/03/16 00:11:21;;;;;;;27.15;5.50;;;13.30;56.40;;;;;;1043792;28;20087;-76
2021/03/16 00:11:53;;;;;;;24.05;6.03;;;13.30;56.40;;;;;;1042883;28;20029;-76
2021/03/16 00:12:24;;;;;;;26.17;6.05;;;13.30;56.90;;;;;;1041261;28;20037;-76
2021/03/16 00:12:56;;;;;;;22.65;5.68;;;13.30;56.70;;;;;;1040758;28;20028;-76
2021/03/16 00:13:27;;;;;;;24.80;5.88;;;13.30;56.30;;;;;;1043407;28;20423;-76
2021/03/16 00:13:58;;;;;;;23.13;6.18;;;13.40;56.30;;;;;;1043933;28;20021;-76
2021/03/16 00:14:30;;;;;;;22.35;5.85;;;13.50;55.40;;;;;;1042672;28;20459;-76
2021/03/16 00:15:01;;;;;;;24.02;6.15;;;13.50;55.60;;;;;;1039404;28;20169;-76
2021/03/16 00:15:33;;;;;;;23.25;6.07;;;13.50;55.60;;;;;;1038856;28;20029;-76
2021/03/16 00:16:04;;;;;;;28.90;6.30;;;13.40;55.70;;;;;;1040242;28;20476;-76
2021/03/16 00:16:36;;;;;;;26.77;6.45;;;13.40;55.80;;;;;;1041653;28;20316;-76
2021/03/16 00:17:07;;;;;;;22.05;6.60;;;13.50;56.10;;;;;;1044305;28;20036;-77
2021/03/16 00:17:39;;;;;;;24.30;6.20;;;13.50;56.60;;;;;;1047033;28;20028;-77
2021/03/16 00:18:14;;;;;;;27.38;6.65;;;13.50;56.20;;;;;;1047136;28;20035;-76
2021/03/16 00:18:46;;;;;;;23.80;5.85;;;13.60;55.40;;;;;;1042401;28;20059;-76
2021/03/16 00:19:21;;;;;;;25.02;6.45;;;13.50;55.20;;;;;;1042230;28;20014;-77
2021/03/16 00:19:52;;;;;;;24.42;6.05;;;13.50;55.30;;;;;;1045259;28;20024;-77
2021/03/16 00:20:23;;;;;;;26.20;6.07;;;13.60;55.40;;;;;;1046906;28;20110;-76
2021/03/16 00:20:55;;;;;;;24.38;6.35;;;13.60;55.50;;;;;;1046371;28;20028;-76
2021/03/16 00:21:26;;;;;;;19.45;5.70;;;13.60;56.00;;;;;;1048452;28;20055;-76
2021/03/16 00:21:58;;;;;;;27.67;6.70;;;13.60;56.00;;;;;;1046673;28;20374;-76
2021/03/16 00:22:29;;;;;;;18.55;5.38;;;13.60;56.00;;;;;;1047365;28;20032;-77
2021/03/16 00:23:01;;;;;;;22.05;6.60;;;13.60;56.10;;;;;;1047544;28;20100;-76
2021/03/16 00:23:32;;;;;;;24.15;6.45;;;13.60;55.80;;;;;;1046472;28;20451;-76
2021/03/16 00:24:04;;;;;;;30.13;6.85;;;13.70;55.60;;;;;;1048528;28;20059;-76
2021/03/16 00:24:35;;;;;;;21.90;6.05;;;13.70;54.90;;;;;;1050912;28;20370;-76
2021/03/16 00:25:07;;;;;;;26.55;6.75;;;13.70;54.60;;;;;;1052028;28;20042;-76
2021/03/16 00:25:39;;;;;;;26.60;6.80;;;13.70;54.80;;;;;;1048077;28;20029;-77
2021/03/16 00:26:11;;;;;;;23.88;6.20;;;13.70;54.50;;;;;;1047197;28;20063;-76
2021/03/16 00:26:42;;;;;;;23.83;6.25;;;13.70;54.80;;;;;;1045995;28;20037;-77
2021/03/16 00:27:14;;;;;;;24.40;5.75;;;13.80;54.80;;;;;;1043013;28;20037;-76
2021/03/16 00:27:45;;;;;;;25.65;6.80;;;13.80;54.90;;;;;;1043040;28;20033;-76
2021/03/16 00:28:17;;;;;;;26.10;6.43;;;13.80;54.20;;;;;;1043522;28;20021;-76
2021/03/16 00:28:48;;;;;;;24.45;5.88;;;13.80;53.20;;;;;;1047743;28;20067;-76
2021/03/16 00:29:19;;;;;;;24.85;6.43;;;13.90;53.30;;;;;;1046633;28;20025;-76
2021/03/16 00:29:51;;;;;;;25.95;6.18;;;13.80;53.00;;;;;;1047167;28;20336;-76
2021/03/16 00:30:22;;;;;;;28.40;6.75;;;13.90;53.50;;;;;;1046730;28;20024;-77
2021/03/16 00:30:54;;;;;;;26.85;6.65;;;13.90;53.30;;;;;;1048611;28;20031;-77
2021/03/16 00:31:25;;;;;;;23.48;5.82;;;13.90;53.40;;;;;;1047208;28;20134;-76
2021/03/16 00:31:57;;;;;;;23.23;6.10;;;13.90;53.40;;;;;;1047379;28;20039;-76
2021/03/16 00:32:28;;;;;;;25.73;6.70;;;13.90;53.70;;;;;;1047748;28;20035;-76
2021/03/16 00:33:00;;;;;;;25.05;6.60;;;13.90;53.50;;;;;;1044311;28;20523;-76
2021/03/16 00:33:31;;;;;;;27.45;6.50;;;13.90;53.30;;;;;;1047296;28;20025;-76
2021/03/16 00:34:03;;;;;;;27.70;6.88;;;14.00;53.00;;;;;;1047097;28;20508;-76
2021/03/16 00:34:34;;;;;;;29.60;6.70;;;14.00;53.20;;;;;;1047575;28;20093;-76
2021/03/16 00:35:06;;;;;;;29.77;6.32;;;14.00;53.10;;;;;;1045822;28;20021;-76
2021/03/16 00:35:38;;;;;;;28.20;6.53;;;14.00;52.90;;;;;;1046951;28;20446;-76
2021/03/16 00:36:09;;;;;;;28.02;6.47;;;14.10;52.60;;;;;;1046800;28;20668;-76
2021/03/16 00:36:41;;;;;;;24.30;6.60;;;14.00;52.90;;;;;;1047752;28;20020;-77
2021/03/16 00:37:12;;;;;;;26.40;6.65;;;14.00;52.50;;;;;;1046985;28;20016;-76
2021/03/16 00:37:44;;;;;;;24.33;6.53;;;14.10;51.90;;;;;;1047532;28;20021;-76
2021/03/16 00:38:15;;;;;;;27.92;6.88;;;14.10;52.20;;;;;;1048835;28;20447;-77
2021/03/16 00:38:47;;;;;;;27.45;6.88;;;14.20;52.20;;;;;;1052347;28;20091;-76
2021/03/16 00:39:18;;;;;;;25.85;6.60;;;14.20;52.10;;;;;;1047474;28;20021;-77
2021/03/16 00:39:51;;;;;;;26.27;6.70;;;14.20;52.40;;;;;;1045933;28;20078;-76
2021/03/16 00:40:22;;;;;;;25.20;6.63;;;14.20;52.00;;;;;;1047630;28;20104;-76
2021/03/16 00:40:54;;;;;;;22.67;5.80;;;14.20;52.00;;;;;;1048345;28;20449;-76
2021/03/16 00:41:25;;;;;;;27.10;6.50;;;14.20;51.90;;;;;;1051128;28;20027;-76
2021/03/16 00:41:58;;;;;;;26.77;6.20;;;14.20;52.00;;;;;;1046845;28;20070;-76
2021/03/16 00:42:29;;;;;;;29.77;6.53;;;14.20;51.30;;;;;;1042293;28;20067;-76
2021/03/16 00:43:00;;;;;;;26.10;6.13;;;14.30;51.60;;;;;;1042736;28;20067;-77
2021/03/16 00:43:32;;;;;;;24.05;6.28;;;14.30;51.60;;;;;;1043844;28;20367;-76
2021/03/16 00:44:04;;;;;;;25.27;6.57;;;14.30;51.40;;;;;;1042393;28;20105;-76
2021/03/16 00:44:35;;;;;;;28.17;6.60;;;14.30;51.30;;;;;;1042804;28;20097;-76
2021/03/16 00:45:07;;;;;;;29.05;6.68;;;14.30;51.30;;;;;;1043321;28;20535;-77
2021/03/16 00:45:39;;;;;;;22.42;6.53;;;14.30;51.50;;;;;;1042708;28;20301;-77
2021/03/16 00:46:10;;;;;;;25.98;6.07;;;14.30;51.50;;;;;;1042870;28;20120;-77
2021/03/16 00:46:42;;;;;;;29.92;6.90;;;14.30;51.90;;;;;;1046704;28;20027;-76
2021/03/16 00:47:13;;;;;;;24.15;6.75;;;14.30;51.70;;;;;;1046512;28;20374;-76
2021/03/16 00:47:45;;;;;;;29.42;7.15;;;14.30;51.40;;;;;;1046773;28;20116;-76
2021/03/16 00:48:17;;;;;;;25.63;6.90;;;14.30;51.60;;;;;;1046265;28;20059;-76
2021/03/16 00:48:49;;;;;;;30.67;7.32;;;14.30;51.80;;;;;;1047518;28;20079;-77
2021/03/16 00:49:20;;;;;;;25.60;6.72;;;14.40;51.30;;;;;;1048827;28;20020;-76
2021/03/16 00:49:52;;;;;;;26.77;6.75;;;14.40;51.10;;;;;;1040862;28;20030;-77
2021/03/16 00:50:23;;;;;;;33.88;6.95;;;14.40;51.10;;;;;;1043127;28;20061;-77
2021/03/16 00:50:55;;;;;;;22.70;6.32;;;14.40;51.00;;;;;;1045156;28;20128;-77
2021/03/16 00:51:28;;;;;;;23.98;6.10;;;14.40;50.30;;;;;;1045797;28;20499;-76
2021/03/16 00:52:01;;;;;;;25.77;6.30;;;14.50;50.10;;;;;;1049202;28;20032;-76
2021/03/16 00:52:32;;;;;;;25.20;6.90;;;14.50;50.50;;;;;;1050342;28;20021;-76
2021/03/16 00:53:04;;;;;;;27.67;6.45;;;14.50;50.70;;;;;;1050992;28;20059;-76
2021/03/16 00:53:35;;;;;;;23.98;6.15;;;14.50;50.40;;;;;;1052257;28;20031;-77
2021/03/16 00:54:06;;;;;;;25.75;6.45;;;14.60;49.60;;;;;;1053628;28;20020;-77
2021/03/16 00:54:38;;;;;;;26.70;6.38;;;14.60;49.50;;;;;;1053891;28;20024;-77
2021/03/16 00:55:10;;;;;;;22.85;6.53;;;14.60;49.60;;;;;;1046715;28;20017;-77
2021/03/16 00:55:41;;;;;;;27.10;6.55;;;14.70;49.50;;;;;;1045088;28;20362;-77
2021/03/16 00:56:14;;;;;;;25.10;6.03;;;14.60;49.60;;;;;;1044535;28;20018;-77
2021/03/16 00:56:46;;;;;;;23.70;6.10;;;14.70;49.90;;;;;;1045934;28;20070;-77
2021/03/16 00:57:17;;;;;;;21.02;5.80;;;14.70;49.60;;;;;;1048481;28;20055;-77
2021/03/16 00:57:48;;;;;;;22.60;5.65;;;14.70;49.30;;;;;;1045083;28;20458;-77
2021/03/16 00:58:27;;;;;;;26.33;6.25;;;14.70;48.70;;;;;;1043770;28;20021;-77
2021/03/16 00:58:58;;;;;;;23.35;6.00;;;14.80;48.80;;;;;;1044885;28;20021;-76
2021/03/16 00:59:29;;;;;;;21.13;5.40;;;14.70;48.50;;;;;;1041690;28;20021;-77
2021/03/16 01:00:01;;;;;;;19.92;5.50;;;14.70;48.60;;;;;;1042263;28;20338;-76
2021/03/16 01:00:32;;;;;;;22.85;5.35;;;14.70;48.00;;;;;;1044781;28;20021;-76
2021/03/16 01:01:06;;;;;;;25.10;6.05;;;14.70;48.00;;;;;;1045674;28;20031;-76
2021/03/16 01:01:38;;;;;;;18.55;5.15;;;14.70;48.20;;;;;;1052577;28;20348;-76
2021/03/16 01:02:10;;;;;;;19.05;5.50;;;14.70;47.80;;;;;;1048495;28;20450;-77
2021/03/16 01:02:41;;;;;;;19.67;5.18;;;14.70;47.60;;;;;;1044978;28;20032;-77
2021/03/16 01:03:12;;;;;;;18.95;5.47;;;14.70;47.40;;;;;;1040628;28;20108;-77
2021/03/16 01:03:44;;;;;;;19.23;5.32;;;14.70;46.60;;;;;;1041439;28;20026;-76
2021/03/16 01:04:15;;;;;;;28.85;5.88;;;14.70;46.70;;;;;;1043285;28;20406;-76
2021/03/16 01:04:47;;;;;;;21.88;5.53;;;14.70;46.90;;;;;;1043933;28;20013;-77
2021/03/16 01:05:18;;;;;;;27.45;6.20;;;14.70;47.00;;;;;;1045486;28;20045;-77
2021/03/16 01:05:51;;;;;;;18.58;5.57;;;14.70;47.10;;;;;;1045155;28;20024;-77
2021/03/16 01:06:23;;;;;;;27.67;5.55;;;14.70;47.70;;;;;;1040487;28;20053;-77
2021/03/16 01:06:54;;;;;;;23.77;5.65;;;14.70;47.20;;;;;;1040918;28;20022;-77
2021/03/16 01:07:26;;;;;;;19.50;5.43;;;14.60;47.30;;;;;;1037509;28;20018;-76
2021/03/16 01:07:57;;;;;;;23.60;5.50;;;14.60;47.20;;;;;;1040895;28;20036;-77
2021/03/16 01:08:29;;;;;;;18.88;5.70;;;14.60;47.30;;;;;;1041110;28;20056;-76
2021/03/16 01:09:00;;;;;;;18.08;5.03;;;14.60;47.50;;;;;;1039015;28;20018;-77
2021/03/16 01:09:32;;;;;;;18.25;4.80;;;14.60;47.20;;;;;;1044947;28;20543;-76
2021/03/16 01:10:08;;;;;;;18.75;5.28;;;14.60;46.70;;;;;;1040321;28;20037;-77
2021/03/16 01:10:40;;;;;;;17.60;5.28;;;14.60;46.70;;;;;;1042090;28;20009;-77
2021/03/16 01:11:11;;;;;;;15.60;4.10;;;14.60;46.50;;;;;;1048290;28;20024;-77
2021/03/16 01:11:43;;;;;;;16.67;4.40;;;14.60;45.80;;;;;;1048766;28;20024;-76
2021/03/16 01:12:14;;;;;;;14.18;4.35;;;14.60;45.20;;;;;;1046894;28;20032;-76
2021/03/16 01:12:46;;;;;;;16.52;4.22;;;14.50;45.10;;;;;;1047198;28;20022;-76
2021/03/16 01:13:18;;;;;;;13.40;3.40;;;14.50;44.80;;;;;;1044896;28;20098;-76
2021/03/16 01:13:50;;;;;;;11.85;3.63;;;14.50;44.60;;;;;;1045310;28;20020;-76
2021/03/16 01:14:21;;;;;;;9.43;3.40;;;14.50;44.50;;;;;;1045719;28;20103;-77
2021/03/16 01:14:52;;;;;;;11.13;3.42;;;14.50;44.50;;;;;;1046218;28;20032;-76
2021/03/16 01:15:24;;;;;;;12.70;3.30;;;14.50;44.40;;;;;;1047549;28;20039;-76
2021/03/16 01:15:55;;;;;;;11.68;3.40;;;14.40;44.50;;;;;;1040872;28;20108;-76
2021/03/16 01:16:27;;;;;;;11.30;3.20;;;14.40;44.40;;;;;;1043028;28;20140;-76
2021/03/16 01:16:58;;;;;;;12.13;3.42;;;14.30;44.60;;;;;;1047943;28;20439;-76
2021/03/16 01:17:30;;;;;;;8.27;3.22;;;14.40;44.30;;;;;;1042383;28;20028;-76
2021/03/16 01:18:02;;;;;;;10.38;3.50;;;14.40;44.10;;;;;;1041040;28;20029;-76
2021/03/16 01:18:34;;;;;;;11.77;3.45;;;14.40;43.80;;;;;;1049072;28;20021;-76
2021/03/16 01:19:05;;;;;;;13.13;3.80;;;14.30;43.90;;;;;;1046160;28;20017;-76
2021/03/16 01:19:37;;;;;;;8.95;3.60;;;14.30;44.00;;;;;;1048965;28;20020;-77
2021/03/16 01:20:15;;;;;;;10.05;3.28;;;14.30;44.20;;;;;;1044916;28;20357;-76
2021/03/16 01:20:47;;;;;;;13.55;3.63;;;14.30;44.20;;;;;;1048099;28;20021;-76
2021/03/16 01:21:18;;;;;;;9.25;3.28;;;14.20;44.80;;;;;;1046813;28;20114;-76
2021/03/16 01:21:50;;;;;;;9.95;3.10;;;14.30;44.20;;;;;;1041067;28;20017;-76
2021/03/16 01:22:21;;;;;;;8.93;2.92;;;14.30;43.90;;;;;;1041115;28;20087;-76
2021/03/16 01:22:53;;;;;;;10.23;3.30;;;14.20;43.90;;;;;;1036775;28;20427;-76
2021/03/16 01:23:25;;;;;;;8.90;3.15;;;14.20;44.10;;;;;;1037095;28;20022;-76
2021/03/16 01:23:56;;;;;;;9.00;3.05;;;14.20;44.20;;;;;;1037049;28;20018;-76
2021/03/16 01:24:27;;;;;;;8.77;3.20;;;14.20;44.70;;;;;;1037409;28;20025;-76
2021/03/16 01:24:59;;;;;;;9.80;3.47;;;14.10;44.90;;;;;;1042097;28;20483;-76
2021/03/16 01:25:30;;;;;;;6.38;3.00;;;14.20;45.00;;;;;;1047132;28;20450;-76
2021/03/16 01:26:04;;;;;;;10.57;3.45;;;14.20;44.90;;;;;;1047552;28;20021;-76
2021/03/16 01:26:35;;;;;;;9.07;3.15;;;14.20;45.50;;;;;;1047720;28;20063;-76
2021/03/16 01:27:07;;;;;;;8.25;3.17;;;14.20;44.20;;;;;;1045432;28;20025;-76
2021/03/16 01:27:38;;;;;;;8.70;3.10;;;14.30;43.80;;;;;;1045897;28;20016;-76
2021/03/16 01:28:10;;;;;;;9.65;3.45;;;14.20;43.70;;;;;;1041495;28;20479;-76
2021/03/16 01:28:41;;;;;;;8.88;3.25;;;14.30;43.90;;;;;;1047327;28;20020;-76
2021/03/16 01:29:13;;;;;;;12.68;3.60;;;14.30;43.90;;;;;;1045629;28;20021;-76
2021/03/16 01:29:44;;;;;;;13.18;3.50;;;14.30;43.80;;;;;;1043095;28;20386;-78
2021/03/16 01:30:17;;;;;;;10.05;3.92;;;14.30;43.90;;;;;;1046592;28;20013;-77
2021/03/16 01:30:48;;;;;;;12.20;3.80;;;14.20;44.10;;;;;;1043924;28;20553;-76
2021/03/16 01:31:19;;;;;;;11.38;3.83;;;14.20;44.40;;;;;;1044197;28;20025;-76
2021/03/16 01:31:51;;;;;;;12.32;3.88;;;14.20;44.60;;;;;;1044442;28;20091;-76
2021/03/16 01:32:22;;;;;;;11.52;3.80;;;14.20;44.70;;;;;;1041205;28;20459;-77
2021/03/16 01:32:54;;;;;;;11.30;3.72;;;14.20;45.00;;;;;;1048583;28;20127;-77
2021/03/16 01:33:26;;;;;;;12.02;3.97;;;14.20;45.20;;;;;;1049393;28;20056;-77
2021/03/16 01:33:57;;;;;;;12.55;3.70;;;14.10;45.40;;;;;;1045502;28;20017;-77
2021/03/16 01:34:28;;;;;;;13.10;3.75;;;14.10;45.60;;;;;;1040964;28;20435;-76
2021/03/16 01:35:01;;;;;;;10.05;3.40;;;14.10;45.50;;;;;;1042167;28;20402;-77
2021/03/16 01:35:33;;;;;;;12.60;4.03;;;14.10;45.50;;;;;;1042372;28;20010;-77
2021/03/16 01:36:05;;;;;;;12.55;3.85;;;14.10;45.70;;;;;;1041934;28;20021;-76
2021/03/16 01:36:36;;;;;;;9.25;3.38;;;14.20;45.80;;;;;;1041317;28;20020;-76
2021/03/16 01:37:07;;;;;;;13.77;3.83;;;14.20;46.00;;;;;;1047804;28;20501;-77
2021/03/16 01:37:40;;;;;;;11.10;3.30;;;14.20;45.20;;;;;;1045624;28;20013;-76
2021/03/16 01:38:11;;;;;;;12.23;3.83;;;14.20;45.40;;;;;;1046294;28;20017;-76
2021/03/16 01:38:42;;;;;;;11.88;3.58;;;14.20;45.40;;;;;;1048285;28;20038;-77
2021/03/16 01:39:14;;;;;;;13.02;3.40;;;14.20;45.30;;;;;;1047883;28;20020;-77
2021/03/16 01:39:47;;;;;;;8.93;3.40;;;14.20;45.10;;;;;;1044156;28;20021;-77
2021/03/16 01:40:22;;;;;;;12.18;3.50;;;14.30;44.80;;;;;;1045688;28;20094;-77
2021/03/16 01:40:54;;;;;;;12.02;3.40;;;14.30;44.60;;;;;;1037461;28;20395;-77
2021/03/16 01:41:25;;;;;;;10.85;3.30;;;14.20;44.40;;;;;;1041284;28;20024;-76
2021/03/16 01:41:56;;;;;;;8.95;2.92;;;14.20;44.50;;;;;;1048552;28;20008;-75
2021/03/16 01:42:28;;;;;;;6.30;2.80;;;14.20;44.20;;;;;;1049475;28;20032;-76
2021/03/16 01:43:13;;;;;;;10.98;3.00;;;14.30;43.70;;;;;;1048761;28;20017;-77
2021/03/16 01:43:45;;;;;;;9.75;2.90;;;14.20;43.70;;;;;;1050420;28;20027;-77
2021/03/16 01:44:16;;;;;;;9.55;3.03;;;14.20;43.90;;;;;;1053503;28;20131;-76
2021/03/16 01:44:48;;;;;;;8.32;2.90;;;14.20;44.10;;;;;;1051038;28;20012;-75
2021/03/16 01:45:19;;;;;;;8.15;3.00;;;14.10;44.20;;;;;;1045190;28;20016;-75
2021/03/16 01:45:52;;;;;;;9.00;3.17;;;14.10;44.40;;;;;;1045169;28;20012;-76
2021/03/16 01:46:24;;;;;;;10.98;3.08;;;14.10;44.60;;;;;;1045262;28;20017;-77
2021/03/16 01:46:55;;;;;;;8.73;3.03;;;14.10;44.80;;;;;;1048275;28;20013;-76
2021/03/16 01:47:29;;;;;;;8.45;2.95;;;14.20;44.70;;;;;;1043751;28;20444;-75
2021/03/16 01:48:01;;;;;;;7.43;2.70;;;14.20;44.50;;;;;;1040339;28;20057;-76
2021/03/16 01:48:34;;;;;;;7.20;2.78;;;14.20;44.20;;;;;;1046917;28;20021;-76
2021/03/16 01:49:06;;;;;;;8.73;2.88;;;14.20;44.30;;;;;;1047429;28;20009;-76
2021/03/16 01:49:38;;;;;;;10.18;2.78;;;14.20;44.40;;;;;;1052431;28;20024;-76
2021/03/16 01:50:12;;;;;;;8.25;3.03;;;14.10;44.40;;;;;;1042698;28;20434;-77
2021/03/16 01:50:44;;;;;;;6.47;2.65;;;14.20;44.40;;;;;;1045810;28;20025;-77
2021/03/16 01:51:17;;;;;;;6.75;2.67;;;14.20;44.60;;;;;;1046608;28;20013;-76
2021/03/16 01:51:49;;;;;;;7.35;3.00;;;14.10;44.60;;;;;;1045071;28;20070;-77
2021/03/16 01:52:20;;;;;;;6.68;2.60;;;14.10;45.00;;;;;;1046746;28;20017;-76
2021/03/16 01:52:53;;;;;;;8.18;2.90;;;14.10;44.80;;;;;;1046267;28;20510;-77
2021/03/16 01:53:25;;;;;;;7.82;2.90;;;14.10;44.70;;;;;;1047626;28;20024;-76
2021/03/16 01:53:56;;;;;;;9.38;2.95;;;14.10;44.90;;;;;;1040623;28;20017;-77
2021/03/16 01:54:28;;;;;;;9.48;3.17;;;14.10;45.10;;;;;;1047941;28;20069;-76
2021/03/16 01:55:00;;;;;;;11.73;3.78;;;14.10;45.40;;;;;;1048242;28;20012;-77
2021/03/16 01:55:32;;;;;;;11.88;3.83;;;14.10;45.80;;;;;;1045749;28;20040;-76
2021/03/16 01:56:03;;;;;;;18.70;4.78;;;14.10;46.20;;;;;;1044213;28;20009;-77
2021/03/16 01:56:38;;;;;;;14.55;4.47;;;14.10;46.70;;;;;;1039588;28;20017;-77
2021/03/16 01:57:12;;;;;;;21.60;5.40;;;14.10;47.00;;;;;;1034548;28;20046;-76
2021/03/16 01:57:45;;;;;;;14.88;4.57;;;14.10;47.30;;;;;;1038417;28;20352;-77
2021/03/16 01:58:17;;;;;;;18.42;4.47;;;14.10;47.70;;;;;;1040413;28;20045;-77
2021/03/16 01:58:54;;;;;;;17.17;5.22;;;14.00;48.10;;;;;;1041870;28;20021;-77
2021/03/16 01:59:27;;;;;;;27.20;6.28;;;14.00;48.50;;;;;;1049217;28;20016;-77
2021/03/16 01:59:58;;;;;;;27.52;7.25;;;14.00;49.50;;;;;;1051194;28;20111;-78
2021/03/16 02:00:37;;;;;;;27.88;6.80;;;14.00;49.80;;;;;;1053753;28;20020;-77
2021/03/16 02:01:09;;;;;;;24.63;6.50;;;13.90;50.20;;;;;;1052215;28;20024;-77
2021/03/16 02:01:40;;;;;;;28.25;6.72;;;13.90;50.50;;;;;;1049977;28;20024;-75
2021/03/16 02:02:12;;;;;;;25.75;6.57;;;13.80;50.60;;;;;;1044719;28;20355;-76
2021/03/16 02:02:43;;;;;;;27.80;7.22;;;13.80;50.70;;;;;;1045296;28;20021;-76
2021/03/16 02:03:14;;;;;;;27.48;7.15;;;13.80;50.90;;;;;;1048378;28;20028;-77
2021/03/16 02:03:46;;;;;;;23.35;6.20;;;13.70;50.90;;;;;;1049773;28;20024;-77
2021/03/16 02:04:17;;;;;;;29.45;7.20;;;13.80;51.00;;;;;;1052986;28;20027;-77
2021/03/16 02:04:50;;;;;;;25.85;6.93;;;13.80;51.00;;;;;;1047337;28;20029;-77
2021/03/16 02:05:21;;;;;;;30.77;6.60;;;13.80;51.20;;;;;;1047287;28;20021;-77
2021/03/16 02:05:52;;;;;;;28.77;7.30;;;13.70;51.30;;;;;;1045803;28;20439;-77
2021/03/16 02:06:38;;;;;;;26.35;6.75;;;13.70;51.20;;;;;;1042503;28;20028;-77
2021/03/16 02:07:21;;;;;;;23.40;6.63;;;13.70;51.30;;;;;;1045279;28;20025;-77
2021/03/16 02:08:23;;;;;;;26.95;6.57;;;13.70;51.50;;;;;;1044970;28;20103;-76
2021/03/16 02:09:27;;;;;;;29.33;6.90;;;13.60;51.50;;;;;;1043149;28;20400;-77
2021/03/16 02:10:11;;;;;;;24.73;6.65;;;13.60;51.30;;;;;;1025744;29;20121;-76
2021/03/16 02:11:20;;;;;;;26.42;6.90;;;13.60;51.50;;;;;;1046699;28;20358;-77
2021/03/16 02:12:04;;;;;;;24.42;5.85;;;13.60;51.50;;;;;;1045331;28;20087;-76
2021/03/16 02:13:02;;;;;;;38.53;6.60;;;13.50;51.70;;;;;;1048099;28;20040;-76
2021/03/16 02:13:54;;;;;;;32.20;6.82;;;13.40;51.90;;;;;;1048129;28;20020;-76
2021/03/16 02:14:35;;;;;;;28.63;7.40;;;13.40;51.90;;;;;;1047999;28;20012;-76
2021/03/16 02:15:14;;;;;;;27.50;7.03;;;13.40;51.90;;;;;;1050305;28;20027;-76
2021/03/16 02:15:50;;;;;;;35.92;7.95;;;13.40;52.00;;;;;;1043992;28;20009;-77
2021/03/16 02:16:32;;;;;;;32.95;7.63;;;13.30;52.00;;;;;;1039685;28;20018;-76
2021/03/16 02:17:12;;;;;;;33.95;7.68;;;13.30;51.90;;;;;;1041321;28;20116;-76
2021/03/16 02:17:52;;;;;;;26.55;6.78;;;13.30;52.10;;;;;;1044398;28;20016;-74
2021/03/16 02:18:28;;;;;;;23.08;7.25;;;13.30;52.20;;;;;;1046066;28;20013;-75
2021/03/16 02:19:01;;;;;;;36.75;7.78;;;13.20;52.20;;;;;;1046335;28;20088;-76
2021/03/16 02:20:06;;;;;;;28.27;7.75;;;13.20;52.30;;;;;;1040654;28;20108;-78
2021/03/16 02:21:05;;;;;;;35.67;7.45;;;13.10;52.50;;;;;;1048928;28;20024;-76
2021/03/16 02:21:37;;;;;;;31.58;7.47;;;13.00;52.80;;;;;;1041600;28;20013;-77
2021/03/16 02:22:09;;;;;;;29.27;7.43;;;13.00;52.90;;;;;;1044845;28;20056;-78
2021/03/16 02:22:43;;;;;;;32.47;7.63;;;13.00;53.10;;;;;;1040804;28;20447;-79
2021/03/16 02:23:25;;;;;;;31.27;7.75;;;13.00;53.20;;;;;;1043056;28;20136;-76
2021/03/16 02:24:00;;;;;;;29.55;6.80;;;13.00;53.30;;;;;;1052207;28;20068;-75
2021/03/16 02:25:07;;;;;;;31.45;7.18;;;12.90;53.60;;;;;;1045828;28;20017;-77
2021/03/16 02:26:08;;;;;;;31.73;7.28;;;12.90;53.70;;;;;;1033062;28;20377;-76
2021/03/16 02:27:16;;;;;;;34.10;7.78;;;12.90;53.90;;;;;;1041395;28;20022;-77
2021/03/16 02:28:06;;;;;;;29.40;7.63;;;12.70;54.10;;;;;;1047781;28;20021;-77
2021/03/16 02:28:55;;;;;;;31.25;7.32;;;12.70;54.40;;;;;;1048017;28;20017;-75
2021/03/16 02:29:52;;;;;;;40.05;7.93;;;12.70;54.60;;;;;;1044418;28;20017;-77
2021/03/16 02:30:25;;;;;;;26.30;6.80;;;12.70;54.50;;;;;;1035634;28;20014;-76
2021/03/16 02:30:58;;;;;;;32.35;7.93;;;12.60;54.50;;;;;;1036795;28;20028;-76
2021/03/16 02:31:33;;;;;;;35.97;7.25;;;12.60;54.70;;;;;;1044404;28;20009;-77
2021/03/16 02:32:09;;;;;;;33.13;7.65;;;12.60;54.90;;;;;;1044513;28;20083;-77
2021/03/16 02:32:42;;;;;;;33.28;7.60;;;12.50;55.00;;;;;;1044020;28;20017;-77
2021/03/16 02:33:21;;;;;;;34.35;8.23;;;12.50;55.10;;;;;;1049529;28;20455;-77
2021/03/16 02:33:55;;;;;;;33.13;8.00;;;12.40;55.10;;;;;;1050341;28;20016;-78
2021/03/16 02:34:28;;;;;;;40.70;7.75;;;12.40;55.30;;;;;;1050879;28;20021;-78
2021/03/16 02:35:02;;;;;;;27.10;7.30;;;12.40;55.40;;;;;;1053151;28;20020;-78
2021/03/16 02:35:35;;;;;;;28.83;7.25;;;12.40;55.60;;;;;;1044796;28;20021;-77
2021/03/16 02:36:07;;;;;;;32.78;8.25;;;12.30;55.60;;;;;;1044380;28;20074;-77
2021/03/16 02:36:41;;;;;;;33.80;7.68;;;12.30;55.80;;;;;;1044508;28;20025;-76
2021/03/16 02:37:14;;;;;;;30.55;7.28;;;12.30;55.70;;;;;;1043851;28;20147;-76
2021/03/16 02:37:47;;;;;;;33.00;7.60;;;12.30;55.70;;;;;;1040479;28;20033;-76
2021/03/16 02:38:24;;;;;;;36.08;7.32;;;12.30;55.80;;;;;;1045943;28;20079;-75
2021/03/16 02:38:57;;;;;;;33.55;7.45;;;12.30;55.80;;;;;;1050962;28;20012;-76
2021/03/16 02:39:29;;;;;;;32.25;7.63;;;12.30;55.80;;;;;;1052915;28;20017;-75
2021/03/16 02:40:03;;;;;;;36.22;7.35;;;12.20;55.70;;;;;;1050769;28;20024;-75
2021/03/16 02:40:36;;;;;;;33.65;7.50;;;12.20;55.60;;;;;;1047496;28;20031;-76
2021/03/16 02:41:10;;;;;;;30.25;7.10;;;12.20;55.70;;;;;;1043447;28;20013;-75
2021/03/16 02:41:44;;;;;;;31.25;7.32;;;12.20;55.70;;;;;;1036377;28;20021;-76
2021/03/16 02:42:18;;;;;;;35.53;8.20;;;12.20;55.60;;;;;;1040077;28;20455;-76
2021/03/16 02:42:50;;;;;;;28.80;6.90;;;12.20;55.50;;;;;;1037477;28;20105;-76
2021/03/16 02:43:22;;;;;;;35.72;7.32;;;12.30;55.40;;;;;;1041661;28;20443;-75
2021/03/16 02:43:54;;;;;;;30.38;7.30;;;12.30;55.30;;;;;;1040433;28;20059;-76
2021/03/16 02:44:26;;;;;;;33.38;7.43;;;12.30;55.20;;;;;;1041150;28;20017;-75
2021/03/16 02:44:57;;;;;;;33.33;7.30;;;12.30;55.20;;;;;;1044648;28;20072;-75
2021/03/16 02:45:31;;;;;;;42.90;7.50;;;12.30;55.30;;;;;;1044452;28;20036;-75
2021/03/16 02:46:06;;;;;;;28.98;6.93;;;12.30;55.20;;;;;;1044050;28;20025;-76
2021/03/16 02:46:43;;;;;;;35.28;7.90;;;12.30;55.20;;;;;;1044466;28;20025;-76
2021/03/16 02:47:18;;;;;;;39.17;7.93;;;12.30;55.20;;;;;;1046865;28;20028;-77
2021/03/16 02:47:50;;;;;;;34.28;7.80;;;12.30;55.20;;;;;;1045238;28;20522;-76
2021/03/16 02:48:24;;;;;;;27.60;7.45;;;12.30;55.20;;;;;;1042575;28;20037;-76
2021/03/16 02:48:56;;;;;;;33.17;8.55;;;12.20;55.30;;;;;;1045058;28;20092;-77
2021/03/16 02:49:28;;;;;;;38.35;8.15;;;12.20;55.50;;;;;;1043518;28;20116;-76
2021/03/16 02:50:00;;;;;;;31.15;7.47;;;12.20;55.50;;;;;;1045371;28;20367;-77
2021/03/16 02:50:33;;;;;;;28.75;7.32;;;12.10;55.60;;;;;;1048679;28;20021;-76
2021/03/16 02:51:06;;;;;;;24.00;6.57;;;12.10;55.70;;;;;;1048949;28;20493;-78
2021/03/16 02:51:38;;;;;;;29.58;6.70;;;12.00;55.80;;;;;;1052022;28;20022;-76
2021/03/16 02:52:11;;;;;;;35.63;7.40;;;12.00;55.90;;;;;;1049469;28;20464;-77
2021/03/16 02:52:43;;;;;;;33.28;7.13;;;12.00;56.00;;;;;;1049465;28;20013;-77
2021/03/16 02:53:16;;;;;;;34.42;7.53;;;12.00;56.00;;;;;;1049563;28;20312;-76